sensor_id;sensor_type;location;lat;lon;timestamp;pressure;altitude;pressure_sealevel;temperature;humidity
10940;BME280;5522;42.696;23.494;2023-10-31T00:01:49;53668.88;;;-139.68;100.00
10940;BME280;5522;42.696;23.494;2023-10-31T00:04:16;53684.94;;;-139.68;100.00
10940;BME280;5522;42.696;23.494;2023-10-31T00:06:44;53695.00;;;-139.68;100.00
10940;BME280;5522;42.696;23.494;2023-10-31T00:09:11;53723.13;;;-139.68;100.00
10940;BME280;5522;42.696;23.494;2023-10-31T00:11:38;53695.00;;;-139.68;100.00
10940;BME280;5522;42.696;23.494;2023-10-31T00:14:07;53723.13;;;-139.68;100.00
10940;BME280;5522;42.696;23.494;2023-10-31T00:16:34;53684.94;;;-139.68;100.00
10940;BME280;5522;42.696;23.494;2023-10-31T00:19:01;53682.94;;;-139.68;100.00
10940;BME280;5522;42.696;23.494;2023-10-31T00:21:28;53717.13;;;-139.68;100.00
10940;BME280;5522;42.696;23.494;2023-10-31T00:23:56;53723.13;;;-139.68;100.00
10940;BME280;5522;42.696;23.494;2023-10-31T00:26:23;53699.03;;;-139.68;100.00
10940;BME280;5522;42.696;23.494;2023-10-31T00:28:50;53715.09;;;-139.68;100.00
10940;BME280;5522;42.696;23.494;2023-10-31T00:31:17;53680.94;;;-139.68;100.00
10940;BME280;5522;42.696;23.494;2023-10-31T00:33:44;53715.09;;;-139.68;100.00
10940;BME280;5522;42.696;23.494;2023-10-31T00:36:10;53688.97;;;-139.68;100.00
10940;BME280;5522;42.696;23.494;2023-10-31T00:38:37;53715.09;;;-139.68;100.00
10940;BME280;5522;42.696;23.494;2023-10-31T00:41:06;53707.06;;;-139.68;100.00
10940;BME280;5522;42.696;23.494;2023-10-31T00:43:32;53686.97;;;-139.68;100.00
10940;BME280;5522;42.696;23.494;2023-10-31T00:45:59;53660.81;;;-139.68;100.00
10940;BME280;5522;42.696;23.494;2023-10-31T00:48:26;53684.94;;;-139.68;100.00
10940;BME280;5522;42.696;23.494;2023-10-31T00:50:53;53723.13;;;-139.68;100.00
10940;BME280;5522;42.696;23.494;2023-10-31T00:53:20;53693.00;;;-139.68;100.00
10940;BME280;5522;42.696;23.494;2023-10-31T00:55:46;53723.13;;;-139.68;100.00
10940;BME280;5522;42.696;23.494;2023-10-31T00:58:15;53735.19;;;-139.68;100.00
10940;BME280;5522;42.696;23.494;2023-10-31T01:08:27;53699.03;;;-139.68;100.00
10940;BME280;5522;42.696;23.494;2023-10-31T01:10:55;53678.91;;;-139.68;100.00
10940;BME280;5522;42.696;23.494;2023-10-31T01:13:23;53666.84;;;-139.68;100.00
10940;BME280;5522;42.696;23.494;2023-10-31T01:15:50;53684.94;;;-139.68;100.00
10940;BME280;5522;42.696;23.494;2023-10-31T01:18:17;53695.00;;;-139.68;100.00
10940;BME280;5522;42.696;23.494;2023-10-31T01:20:47;53686.97;;;-139.68;100.00
10940;BME280;5522;42.696;23.494;2023-10-31T01:23:13;53662.84;;;-139.68;100.00
10940;BME280;5522;42.696;23.494;2023-10-31T01:25:40;53654.78;;;-139.68;100.00
10940;BME280;5522;42.696;23.494;2023-10-31T01:28:07;53674.91;;;-139.68;100.00
10940;BME280;5522;42.696;23.494;2023-10-31T01:30:35;53678.91;;;-139.68;100.00
10940;BME280;5522;42.696;23.494;2023-10-31T01:33:02;53674.91;;;-139.68;100.00
10940;BME280;5522;42.696;23.494;2023-10-31T01:35:29;53676.91;;;-139.68;100.00
10940;BME280;5522;42.696;23.494;2023-10-31T01:37:56;53658.81;;;-139.68;100.00
10940;BME280;5522;42.696;23.494;2023-10-31T01:40:23;53630.66;;;-139.68;100.00
10940;BME280;5522;42.696;23.494;2023-10-31T01:42:50;53682.94;;;-139.68;100.00
10940;BME280;5522;42.696;23.494;2023-10-31T01:45:17;53652.78;;;-139.68;100.00
10940;BME280;5522;42.696;23.494;2023-10-31T01:47:47;53674.91;;;-139.68;100.00
10940;BME280;5522;42.696;23.494;2023-10-31T01:50:15;53668.88;;;-139.68;100.00
10940;BME280;5522;42.696;23.494;2023-10-31T01:52:43;53654.78;;;-139.68;100.00
10940;BME280;5522;42.696;23.494;2023-10-31T01:55:10;53686.97;;;-139.68;100.00
10940;BME280;5522;42.696;23.494;2023-10-31T01:57:38;53680.94;;;-139.68;100.00
10940;BME280;5522;42.696;23.494;2023-10-31T02:00:06;53674.91;;;-139.68;100.00
10940;BME280;5522;42.696;23.494;2023-10-31T02:02:33;53703.03;;;-139.68;100.00
10940;BME280;5522;42.696;23.494;2023-10-31T02:05:02;53662.84;;;-139.68;100.00
10940;BME280;5522;42.696;23.494;2023-10-31T02:07:29;53660.81;;;-139.68;100.00
10940;BME280;5522;42.696;23.494;2023-10-31T02:09:56;53699.03;;;-139.68;100.00
10940;BME280;5522;42.696;23.494;2023-10-31T02:12:33;53674.91;;;-139.68;100.00
10940;BME280;5522;42.696;23.494;2023-10-31T02:15:00;53682.94;;;-139.68;100.00
10940;BME280;5522;42.696;23.494;2023-10-31T02:17:27;53634.69;;;-139.68;100.00
10940;BME280;5522;42.696;23.494;2023-10-31T02:19:54;53662.84;;;-139.68;100.00
10940;BME280;5522;42.696;23.494;2023-10-31T02:22:22;53699.03;;;-139.68;100.00
10940;BME280;5522;42.696;23.494;2023-10-31T02:24:49;53715.09;;;-139.68;100.00
10940;BME280;5522;42.696;23.494;2023-10-31T02:27:15;53688.97;;;-139.68;100.00
10940;BME280;5522;42.696;23.494;2023-10-31T02:29:42;53678.91;;;-139.68;100.00
10940;BME280;5522;42.696;23.494;2023-10-31T02:32:09;53648.75;;;-139.68;100.00
10940;BME280;5522;42.696;23.494;2023-10-31T02:34:36;53684.94;;;-139.68;100.00
10940;BME280;5522;42.696;23.494;2023-10-31T02:37:02;53678.91;;;-139.68;100.00
10940;BME280;5522;42.696;23.494;2023-10-31T02:39:32;53684.94;;;-139.68;100.00
10940;BME280;5522;42.696;23.494;2023-10-31T02:41:59;53670.88;;;-139.68;100.00
10940;BME280;5522;42.696;23.494;2023-10-31T02:44:25;53654.78;;;-139.68;100.00
10940;BME280;5522;42.696;23.494;2023-10-31T02:46:52;53686.97;;;-139.68;100.00
10940;BME280;5522;42.696;23.494;2023-10-31T02:49:19;53658.81;;;-139.68;100.00
10940;BME280;5522;42.696;23.494;2023-10-31T02:51:46;53682.94;;;-139.68;100.00
10940;BME280;5522;42.696;23.494;2023-10-31T02:54:12;53650.78;;;-139.68;100.00
10940;BME280;5522;42.696;23.494;2023-10-31T02:56:41;53636.69;;;-139.68;100.00
10940;BME280;5522;42.696;23.494;2023-10-31T02:59:07;53660.81;;;-139.68;100.00
10940;BME280;5522;42.696;23.494;2023-10-31T03:01:35;53695.00;;;-139.68;100.00
10940;BME280;5522;42.696;23.494;2023-10-31T03:04:02;53650.78;;;-139.68;100.00
10940;BME280;5522;42.696;23.494;2023-10-31T03:06:29;53654.78;;;-139.68;100.00
10940;BME280;5522;42.696;23.494;2023-10-31T03:08:55;53668.88;;;-139.68;100.00
10940;BME280;5522;42.696;23.494;2023-10-31T03:11:22;53658.81;;;-139.68;100.00
10940;BME280;5522;42.696;23.494;2023-10-31T03:13:51;53674.91;;;-139.68;100.00
10940;BME280;5522;42.696;23.494;2023-10-31T03:16:18;53674.91;;;-139.68;100.00
10940;BME280;5522;42.696;23.494;2023-10-31T03:18:46;53660.81;;;-139.68;100.00
10940;BME280;5522;42.696;23.494;2023-10-31T03:21:13;53664.84;;;-139.68;100.00
10940;BME280;5522;42.696;23.494;2023-10-31T03:23:41;53646.75;;;-139.68;100.00
10940;BME280;5522;42.696;23.494;2023-10-31T03:26:08;53678.91;;;-139.68;100.00
10940;BME280;5522;42.696;23.494;2023-10-31T03:28:35;53670.88;;;-139.68;100.00
10940;BME280;5522;42.696;23.494;2023-10-31T03:31:03;53630.66;;;-139.68;100.00
10940;BME280;5522;42.696;23.494;2023-10-31T03:33:30;53654.78;;;-139.68;100.00
10940;BME280;5522;42.696;23.494;2023-10-31T03:35:57;53650.78;;;-139.68;100.00
10940;BME280;5522;42.696;23.494;2023-10-31T03:38:24;53646.75;;;-139.68;100.00
10940;BME280;5522;42.696;23.494;2023-10-31T03:40:51;53658.81;;;-139.68;100.00
10940;BME280;5522;42.696;23.494;2023-10-31T03:43:18;53630.66;;;-139.68;100.00
10940;BME280;5522;42.696;23.494;2023-10-31T03:45:46;53660.81;;;-139.68;100.00
10940;BME280;5522;42.696;23.494;2023-10-31T03:48:14;53620.63;;;-139.68;100.00
10940;BME280;5522;42.696;23.494;2023-10-31T03:50:41;53654.78;;;-139.68;100.00
10940;BME280;5522;42.696;23.494;2023-10-31T03:53:08;53620.63;;;-139.68;100.00
10940;BME280;5522;42.696;23.494;2023-10-31T03:55:34;53614.59;;;-139.68;100.00
10940;BME280;5522;42.696;23.494;2023-10-31T03:58:02;53652.78;;;-139.68;100.00
10940;BME280;5522;42.696;23.494;2023-10-31T04:00:28;53674.91;;;-139.68;100.00
10940;BME280;5522;42.696;23.494;2023-10-31T04:02:55;53666.84;;;-139.68;100.00
10940;BME280;5522;42.696;23.494;2023-10-31T04:05:23;53650.78;;;-139.68;100.00
10940;BME280;5522;42.696;23.494;2023-10-31T04:07:51;53662.84;;;-139.68;100.00
10940;BME280;5522;42.696;23.494;2023-10-31T04:10:18;53664.84;;;-139.68;100.00
10940;BME280;5522;42.696;23.494;2023-10-31T04:12:45;53652.78;;;-139.68;100.00
10940;BME280;5522;42.696;23.494;2023-10-31T04:15:12;53658.81;;;-139.68;100.00
10940;BME280;5522;42.696;23.494;2023-10-31T04:17:39;53650.78;;;-139.68;100.00
10940;BME280;5522;42.696;23.494;2023-10-31T04:20:07;53630.66;;;-139.68;100.00
10940;BME280;5522;42.696;23.494;2023-10-31T04:22:35;53650.78;;;-139.68;100.00
10940;BME280;5522;42.696;23.494;2023-10-31T04:25:03;53672.88;;;-139.68;100.00
10940;BME280;5522;42.696;23.494;2023-10-31T04:27:30;53660.81;;;-139.68;100.00
10940;BME280;5522;42.696;23.494;2023-10-31T04:29:57;53614.59;;;-139.68;100.00
10940;BME280;5522;42.696;23.494;2023-10-31T04:32:24;53674.91;;;-139.68;100.00
10940;BME280;5522;42.696;23.494;2023-10-31T04:34:50;53630.66;;;-139.68;100.00
10940;BME280;5522;42.696;23.494;2023-10-31T04:37:17;53638.72;;;-139.68;100.00
10940;BME280;5522;42.696;23.494;2023-10-31T04:39:45;53686.97;;;-139.68;100.00
10940;BME280;5522;42.696;23.494;2023-10-31T04:42:12;53652.78;;;-139.68;100.00
10940;BME280;5522;42.696;23.494;2023-10-31T04:44:39;53654.78;;;-139.68;100.00
10940;BME280;5522;42.696;23.494;2023-10-31T04:47:06;53654.78;;;-139.68;100.00
10940;BME280;5522;42.696;23.494;2023-10-31T04:49:34;53656.81;;;-139.68;100.00
10940;BME280;5522;42.696;23.494;2023-10-31T04:52:01;53682.94;;;-139.68;100.00
10940;BME280;5522;42.696;23.494;2023-10-31T04:54:28;53650.78;;;-139.68;100.00
10940;BME280;5522;42.696;23.494;2023-10-31T04:56:56;53632.69;;;-139.68;100.00
10940;BME280;5522;42.696;23.494;2023-10-31T04:59:23;53658.81;;;-139.68;100.00
10940;BME280;5522;42.696;23.494;2023-10-31T05:01:50;53626.66;;;-139.68;100.00
10940;BME280;5522;42.696;23.494;2023-10-31T05:04:17;53662.84;;;-139.68;100.00
10940;BME280;5522;42.696;23.494;2023-10-31T05:06:44;53670.88;;;-139.68;100.00
10940;BME280;5522;42.696;23.494;2023-10-31T05:09:11;53654.78;;;-139.68;100.00
10940;BME280;5522;42.696;23.494;2023-10-31T05:11:38;53642.72;;;-139.68;100.00
10940;BME280;5522;42.696;23.494;2023-10-31T05:14:08;53634.69;;;-139.68;100.00
10940;BME280;5522;42.696;23.494;2023-10-31T05:16:39;53654.78;;;-139.68;100.00
10940;BME280;5522;42.696;23.494;2023-10-31T05:19:07;53680.94;;;-139.68;100.00
10940;BME280;5522;42.696;23.494;2023-10-31T05:21:34;53678.91;;;-139.68;100.00
10940;BME280;5522;42.696;23.494;2023-10-31T05:24:01;53648.75;;;-139.68;100.00
10940;BME280;5522;42.696;23.494;2023-10-31T05:26:28;53707.06;;;-139.68;100.00
10940;BME280;5522;42.696;23.494;2023-10-31T05:28:55;53670.88;;;-139.68;100.00
10940;BME280;5522;42.696;23.494;2023-10-31T05:31:23;53666.84;;;-139.68;100.00
10940;BME280;5522;42.696;23.494;2023-10-31T05:33:51;53662.84;;;-139.68;100.00
10940;BME280;5522;42.696;23.494;2023-10-31T05:36:18;53699.03;;;-139.68;100.00
10940;BME280;5522;42.696;23.494;2023-10-31T05:38:47;53646.75;;;-139.68;100.00
10940;BME280;5522;42.696;23.494;2023-10-31T05:41:14;53650.78;;;-139.68;100.00
10940;BME280;5522;42.696;23.494;2023-10-31T05:43:43;53723.13;;;-139.68;100.00
10940;BME280;5522;42.696;23.494;2023-10-31T05:46:09;53654.78;;;-139.68;100.00
10940;BME280;5522;42.696;23.494;2023-10-31T05:48:40;53690.97;;;-139.68;100.00
10940;BME280;5522;42.696;23.494;2023-10-31T05:51:17;53670.88;;;-139.68;100.00
10940;BME280;5522;42.696;23.494;2023-10-31T05:53:46;53654.78;;;-139.68;100.00
10940;BME280;5522;42.696;23.494;2023-10-31T05:56:14;53703.03;;;-139.68;100.00
10940;BME280;5522;42.696;23.494;2023-10-31T05:58:43;53711.09;;;-139.68;100.00
10940;BME280;5522;42.696;23.494;2023-10-31T06:01:10;53672.88;;;-139.68;100.00
10940;BME280;5522;42.696;23.494;2023-10-31T06:03:37;53650.78;;;-139.68;100.00
10940;BME280;5522;42.696;23.494;2023-10-31T06:06:06;53699.03;;;-139.68;100.00
10940;BME280;5522;42.696;23.494;2023-10-31T06:08:33;53711.09;;;-139.68;100.00
10940;BME280;5522;42.696;23.494;2023-10-31T06:11:00;53678.91;;;-139.68;100.00
10940;BME280;5522;42.696;23.494;2023-10-31T06:13:27;53672.88;;;-139.68;100.00
10940;BME280;5522;42.696;23.494;2023-10-31T06:15:57;53719.13;;;-139.68;100.00
10940;BME280;5522;42.696;23.494;2023-10-31T06:18:24;53701.03;;;-139.68;100.00
10940;BME280;5522;42.696;23.494;2023-10-31T06:20:54;53725.16;;;-139.68;100.00
10940;BME280;5522;42.696;23.494;2023-10-31T06:23:22;53697.00;;;-139.68;100.00
10940;BME280;5522;42.696;23.494;2023-10-31T06:25:48;53699.03;;;-139.68;100.00
10940;BME280;5522;42.696;23.494;2023-10-31T06:28:15;53701.03;;;-139.68;100.00
10940;BME280;5522;42.696;23.494;2023-10-31T06:30:42;53725.16;;;-139.68;100.00
10940;BME280;5522;42.696;23.494;2023-10-31T06:33:12;53674.91;;;-139.68;100.00
10940;BME280;5522;42.696;23.494;2023-10-31T06:35:39;53713.09;;;-139.68;100.00
10940;BME280;5522;42.696;23.494;2023-10-31T06:38:07;53725.16;;;-139.68;100.00
10940;BME280;5522;42.696;23.494;2023-10-31T06:40:35;53719.13;;;-139.68;100.00
10940;BME280;5522;42.696;23.494;2023-10-31T06:43:02;53731.19;;;-139.68;100.00
10940;BME280;5522;42.696;23.494;2023-10-31T06:45:29;53701.03;;;-139.68;100.00
10940;BME280;5522;42.696;23.494;2023-10-31T06:47:56;53747.25;;;-139.68;100.00
10940;BME280;5522;42.696;23.494;2023-10-31T06:50:29;53715.09;;;-139.68;100.00
10940;BME280;5522;42.696;23.494;2023-10-31T06:53:00;53723.13;;;-139.68;100.00
10940;BME280;5522;42.696;23.494;2023-10-31T06:55:26;53731.19;;;-139.68;100.00
10940;BME280;5522;42.696;23.494;2023-10-31T06:58:02;53739.22;;;-139.68;100.00
10940;BME280;5522;42.696;23.494;2023-10-31T07:00:29;53795.50;;;-139.68;100.00
10940;BME280;5522;42.696;23.494;2023-10-31T07:02:56;53745.25;;;-139.68;100.00
10940;BME280;5522;42.696;23.494;2023-10-31T07:05:30;53739.22;;;-139.68;100.00
10940;BME280;5522;42.696;23.494;2023-10-31T07:07:57;53779.44;;;-139.68;100.00
10940;BME280;5522;42.696;23.494;2023-10-31T07:10:26;53751.28;;;-139.68;97.13
10940;BME280;5522;42.696;23.494;2023-10-31T07:13:03;53783.44;;;-139.68;91.22
10940;BME280;5522;42.696;23.494;2023-10-31T07:15:30;53781.44;;;-139.68;78.08
10940;BME280;5522;42.696;23.494;2023-10-31T07:17:57;53791.50;;;-139.68;72.51
10940;BME280;5522;42.696;23.494;2023-10-31T07:20:29;53799.53;;;-139.68;58.90
10940;BME280;5522;42.696;23.494;2023-10-31T07:22:56;53815.63;;;-139.68;54.94
10940;BME280;5522;42.696;23.494;2023-10-31T07:25:32;53837.72;;;-139.68;52.93
10940;BME280;5522;42.696;23.494;2023-10-31T07:28:11;53815.63;;;-139.68;60.47
10940;BME280;5522;42.696;23.494;2023-10-31T07:30:38;53813.59;;;-139.68;59.22
10940;BME280;5522;42.696;23.494;2023-10-31T07:33:07;53811.59;;;-139.68;56.71
10940;BME280;5522;42.696;23.494;2023-10-31T07:35:34;53793.50;;;-139.68;51.45
10940;BME280;5522;42.696;23.494;2023-10-31T07:38:02;53815.63;;;-139.68;48.17
10940;BME280;5522;42.696;23.494;2023-10-31T07:40:31;53869.91;;;-139.68;44.00
10940;BME280;5522;42.696;23.494;2023-10-31T07:42:58;53871.91;;;-139.68;41.59
10940;BME280;5522;42.696;23.494;2023-10-31T07:45:26;53861.84;;;-139.68;39.13
10940;BME280;5522;42.696;23.494;2023-10-31T07:47:53;53869.91;;;-139.68;37.64
10940;BME280;5522;42.696;23.494;2023-10-31T07:50:22;53869.91;;;-139.68;37.82
10940;BME280;5522;42.696;23.494;2023-10-31T07:52:48;53863.88;;;-139.68;35.79
10940;BME280;5522;42.696;23.494;2023-10-31T07:55:15;53863.88;;;-139.68;35.96
10940;BME280;5522;42.696;23.494;2023-10-31T07:57:42;53863.88;;;-139.68;34.66
10940;BME280;5522;42.696;23.494;2023-10-31T08:00:12;53892.00;;;-139.68;33.87
10940;BME280;5522;42.696;23.494;2023-10-31T08:02:41;53900.06;;;-139.68;33.42
10940;BME280;5522;42.696;23.494;2023-10-31T08:05:09;53892.00;;;-139.68;32.60
10940;BME280;5522;42.696;23.494;2023-10-31T08:07:38;53867.88;;;-139.68;31.97
10940;BME280;5522;42.696;23.494;2023-10-31T08:10:10;53918.16;;;-139.68;32.10
10940;BME280;5522;42.696;23.494;2023-10-31T08:12:37;53926.19;;;-139.68;31.55
10940;BME280;5522;42.696;23.494;2023-10-31T08:15:06;53908.09;;;-139.68;31.87
10940;BME280;5522;42.696;23.494;2023-10-31T08:17:35;53879.94;;;-139.68;31.99
10940;BME280;5522;42.696;23.494;2023-10-31T08:20:10;53881.97;;;-139.68;32.47
10940;BME280;5522;42.696;23.494;2023-10-31T08:22:38;53883.97;;;-139.68;32.26
10940;BME280;5522;42.696;23.494;2023-10-31T08:25:08;53883.97;;;-139.68;32.39
10940;BME280;5522;42.696;23.494;2023-10-31T08:27:35;53877.94;;;-139.68;32.08
10940;BME280;5522;42.696;23.494;2023-10-31T08:30:07;53867.88;;;-139.68;32.48
10940;BME280;5522;42.696;23.494;2023-10-31T08:32:37;53920.16;;;-139.68;31.92
10940;BME280;5522;42.696;23.494;2023-10-31T08:35:05;53867.88;;;-139.68;31.68
10940;BME280;5522;42.696;23.494;2023-10-31T08:37:33;53888.00;;;-139.68;31.23
10940;BME280;5522;42.696;23.494;2023-10-31T08:40:10;53892.00;;;-139.68;31.51
10940;BME280;5522;42.696;23.494;2023-10-31T08:42:43;53900.06;;;-139.68;31.38
10940;BME280;5522;42.696;23.494;2023-10-31T08:45:18;53888.00;;;-139.68;30.80
10940;BME280;5522;42.696;23.494;2023-10-31T08:47:45;53896.03;;;-139.68;31.13
10940;BME280;5522;42.696;23.494;2023-10-31T08:50:18;53885.97;;;-139.68;29.83
10940;BME280;5522;42.696;23.494;2023-10-31T08:52:49;53888.00;;;-139.68;30.44
10940;BME280;5522;42.696;23.494;2023-10-31T08:55:16;53902.06;;;-139.68;29.87
10940;BME280;5522;42.696;23.494;2023-10-31T08:57:45;53875.94;;;-139.68;30.20
10940;BME280;5522;42.696;23.494;2023-10-31T09:00:20;53920.16;;;-139.68;29.39
10940;BME280;5522;42.696;23.494;2023-10-31T09:02:46;53885.97;;;-139.68;28.85
10940;BME280;5522;42.696;23.494;2023-10-31T09:05:13;53883.97;;;-139.68;28.38
10940;BME280;5522;42.696;23.494;2023-10-31T09:07:42;53908.09;;;-139.68;28.06
10940;BME280;5522;42.696;23.494;2023-10-31T09:10:14;53930.22;;;-139.68;28.35
10940;BME280;5522;42.696;23.494;2023-10-31T09:12:41;53900.06;;;-139.68;28.16
10940;BME280;5522;42.696;23.494;2023-10-31T09:15:08;53879.94;;;-139.68;27.76
10940;BME280;5522;42.696;23.494;2023-10-31T09:17:39;53867.88;;;-139.68;28.01
10940;BME280;5522;42.696;23.494;2023-10-31T09:20:09;53912.13;;;-139.68;28.09
10940;BME280;5522;42.696;23.494;2023-10-31T09:22:40;53918.16;;;-139.68;29.03
10940;BME280;5522;42.696;23.494;2023-10-31T09:25:12;53892.00;;;-139.68;28.31
10940;BME280;5522;42.696;23.494;2023-10-31T09:27:40;53892.00;;;-139.68;28.93
10940;BME280;5522;42.696;23.494;2023-10-31T09:30:10;53916.13;;;-139.68;28.68
10940;BME280;5522;42.696;23.494;2023-10-31T09:32:42;53922.16;;;-139.68;28.99
10940;BME280;5522;42.696;23.494;2023-10-31T09:35:09;53924.16;;;-139.68;28.48
10940;BME280;5522;42.696;23.494;2023-10-31T09:37:38;53944.28;;;-139.68;28.43
10940;BME280;5522;42.696;23.494;2023-10-31T09:40:09;53888.00;;;-139.68;27.81
10940;BME280;5522;42.696;23.494;2023-10-31T09:42:38;53944.28;;;-139.68;28.01
10940;BME280;5522;42.696;23.494;2023-10-31T09:45:05;53934.22;;;-139.68;27.26
10940;BME280;5522;42.696;23.494;2023-10-31T09:47:33;53902.06;;;-139.68;27.67
10940;BME280;5522;42.696;23.494;2023-10-31T09:50:03;53930.22;;;-139.68;27.25
10940;BME280;5522;42.696;23.494;2023-10-31T09:52:30;53871.91;;;-139.68;26.63
10940;BME280;5522;42.696;23.494;2023-10-31T09:54:57;53885.97;;;-139.68;26.37
10940;BME280;5522;42.696;23.494;2023-10-31T09:57:28;53900.06;;;-139.68;25.28
10940;BME280;5522;42.696;23.494;2023-10-31T09:59:56;53865.88;;;-139.68;25.60
10940;BME280;5522;42.696;23.494;2023-10-31T10:02:29;53890.00;;;-139.68;25.09
10940;BME280;5522;42.696;23.494;2023-10-31T10:04:56;53885.97;;;-139.68;24.75
10940;BME280;5522;42.696;23.494;2023-10-31T10:07:22;53867.88;;;-139.68;25.09
10940;BME280;5522;42.696;23.494;2023-10-31T10:09:56;53875.94;;;-139.68;25.25
10940;BME280;5522;42.696;23.494;2023-10-31T10:12:24;53875.94;;;-139.68;25.02
10940;BME280;5522;42.696;23.494;2023-10-31T10:14:52;53865.88;;;-139.68;24.91
10940;BME280;5522;42.696;23.494;2023-10-31T10:17:22;53906.06;;;-139.68;24.56
10940;BME280;5522;42.696;23.494;2023-10-31T10:20:07;53883.97;;;-139.68;25.09
10940;BME280;5522;42.696;23.494;2023-10-31T10:22:37;53881.97;;;-139.68;25.26
10940;BME280;5522;42.696;23.494;2023-10-31T10:25:07;53932.22;;;-139.68;24.60
10940;BME280;5522;42.696;23.494;2023-10-31T10:27:34;53863.88;;;-139.68;25.97
10940;BME280;5522;42.696;23.494;2023-10-31T10:30:01;53892.00;;;-139.68;25.69
10940;BME280;5522;42.696;23.494;2023-10-31T10:32:34;53940.25;;;-139.68;25.18
10940;BME280;5522;42.696;23.494;2023-10-31T10:35:02;53888.00;;;-139.68;25.29
10940;BME280;5522;42.696;23.494;2023-10-31T10:37:30;53896.03;;;-139.68;25.51
10940;BME280;5522;42.696;23.494;2023-10-31T10:40:01;53910.09;;;-139.68;25.45
10940;BME280;5522;42.696;23.494;2023-10-31T10:42:36;53928.19;;;-139.68;26.34
10940;BME280;5522;42.696;23.494;2023-10-31T10:45:08;53940.25;;;-139.68;27.54
10940;BME280;5522;42.696;23.494;2023-10-31T10:47:39;53944.28;;;-139.68;28.26
10940;BME280;5522;42.696;23.494;2023-10-31T10:50:06;53968.41;;;-139.68;28.16
10940;BME280;5522;42.696;23.494;2023-10-31T10:52:38;53936.22;;;-139.68;29.72
10940;BME280;5522;42.696;23.494;2023-10-31T10:55:12;53932.22;;;-139.68;29.33
10940;BME280;5522;42.696;23.494;2023-10-31T10:57:48;53922.16;;;-139.68;29.45
10940;BME280;5522;42.696;23.494;2023-10-31T11:00:17;53934.22;;;-139.68;30.57
10940;BME280;5522;42.696;23.494;2023-10-31T11:02:52;53896.03;;;-139.68;30.58
10940;BME280;5522;42.696;23.494;2023-10-31T11:05:20;53898.03;;;-139.68;30.94
10940;BME280;5522;42.696;23.494;2023-10-31T11:07:47;53914.13;;;-139.68;31.43
10940;BME280;5522;42.696;23.494;2023-10-31T11:10:15;53918.16;;;-139.68;32.46
10940;BME280;5522;42.696;23.494;2023-10-31T11:12:43;53883.97;;;-139.68;33.27
10940;BME280;5522;42.696;23.494;2023-10-31T11:15:12;53924.16;;;-139.68;34.05
10940;BME280;5522;42.696;23.494;2023-10-31T11:17:44;53920.16;;;-139.68;33.70
10940;BME280;5522;42.696;23.494;2023-10-31T11:20:22;53944.28;;;-139.68;34.07
10940;BME280;5522;42.696;23.494;2023-10-31T11:22:55;53920.16;;;-139.68;33.82
10940;BME280;5522;42.696;23.494;2023-10-31T11:25:32;53916.13;;;-139.68;33.44
10940;BME280;5522;42.696;23.494;2023-10-31T11:28:11;53950.31;;;-139.68;33.45
10940;BME280;5522;42.696;23.494;2023-10-31T11:30:42;53914.13;;;-139.68;33.48
10940;BME280;5522;42.696;23.494;2023-10-31T11:33:13;53944.28;;;-139.68;33.56
10940;BME280;5522;42.696;23.494;2023-10-31T11:35:42;53948.31;;;-139.68;33.67
10940;BME280;5522;42.696;23.494;2023-10-31T11:38:10;53906.06;;;-139.68;33.17
10940;BME280;5522;42.696;23.494;2023-10-31T11:40:57;53928.19;;;-139.68;33.48
10940;BME280;5522;42.696;23.494;2023-10-31T11:43:25;53914.13;;;-139.68;34.17
10940;BME280;5522;42.696;23.494;2023-10-31T11:45:51;53942.25;;;-139.68;34.07
10940;BME280;5522;42.696;23.494;2023-10-31T11:48:46;53888.00;;;-139.68;34.38
10940;BME280;5522;42.696;23.494;2023-10-31T11:51:15;53932.22;;;-139.68;34.09
10940;BME280;5522;42.696;23.494;2023-10-31T11:53:43;53902.06;;;-139.68;34.44
10940;BME280;5522;42.696;23.494;2023-10-31T11:56:11;53932.22;;;-139.68;35.03
10940;BME280;5522;42.696;23.494;2023-10-31T11:58:38;53926.19;;;-139.68;35.15
10940;BME280;5522;42.696;23.494;2023-10-31T12:01:08;53900.06;;;-139.68;34.93
10940;BME280;5522;42.696;23.494;2023-10-31T12:03:40;53912.13;;;-139.68;35.09
10940;BME280;5522;42.696;23.494;2023-10-31T12:06:10;53936.22;;;-139.68;35.51
10940;BME280;5522;42.696;23.494;2023-10-31T12:08:41;53924.16;;;-139.68;35.57
10940;BME280;5522;42.696;23.494;2023-10-31T12:11:10;53936.22;;;-139.68;35.70
10940;BME280;5522;42.696;23.494;2023-10-31T12:13:38;53908.09;;;-139.68;35.70
10940;BME280;5522;42.696;23.494;2023-10-31T12:16:09;53910.09;;;-139.68;36.42
10940;BME280;5522;42.696;23.494;2023-10-31T12:18:38;53914.13;;;-139.68;36.03
10940;BME280;5522;42.696;23.494;2023-10-31T12:21:06;53926.19;;;-139.68;36.31
10940;BME280;5522;42.696;23.494;2023-10-31T12:23:43;53916.13;;;-139.68;36.60
10940;BME280;5522;42.696;23.494;2023-10-31T12:26:21;53885.97;;;-139.68;36.78
10940;BME280;5522;42.696;23.494;2023-10-31T12:28:50;53932.22;;;-139.68;36.57
10940;BME280;5522;42.696;23.494;2023-10-31T12:31:17;53896.03;;;-139.68;37.13
10940;BME280;5522;42.696;23.494;2023-10-31T12:33:49;53912.13;;;-139.68;37.57
10940;BME280;5522;42.696;23.494;2023-10-31T12:36:19;53934.22;;;-139.68;36.25
10940;BME280;5522;42.696;23.494;2023-10-31T12:38:52;53918.16;;;-139.68;36.00
10940;BME280;5522;42.696;23.494;2023-10-31T12:41:19;53888.00;;;-139.68;35.91
10940;BME280;5522;42.696;23.494;2023-10-31T12:43:49;53914.13;;;-139.68;37.27
10940;BME280;5522;42.696;23.494;2023-10-31T12:46:29;53892.00;;;-139.68;35.74
10940;BME280;5522;42.696;23.494;2023-10-31T12:48:56;53920.16;;;-139.68;35.27
10940;BME280;5522;42.696;23.494;2023-10-31T12:51:23;53924.16;;;-139.68;35.70